Mae Sariang, Thailand
Current Conditions -  °F | °C
As of 7:00 PM on Monday 22 Dec 2014 (Local Time) from VTCC Reporting Station
Broken Clouds Broken Clouds  
Wind Chill: 21°   Ceiling: 30000
Heat Index: 21°   Visibility: 6mi
Dew Point: 10°   Wind: 10mph
Humidity: 49%   Direction: 10°N
Pressure: 30.03"   Gusts: NA
Location:  18.15°N, 97.93°E
Report Text: VTCC 221200Z 01009KT 9999 FEW040 BKN300 21/10 Q1017 A3005 NOSIG
Loading
Personal Weather Stations






























Interactive Weather Map New forecast layout! Learn more

10-Day Weather Forecast

Advertisements
Track Severe Weather on mobile